KSUU/SUU METAR and TAF weather

Enter ICAO airport designator
Station Type Date Time Source
KSUU METAR 2020/09/21 07:58 UTC NOAA

KSUU 210758Z AUTO 22012KT 10SM CLR 18/13 A2983 RMK AO2 SLP108 T01840133 403640129 $


Station Type Date Time Source
KSUU Decoded METAR 2020/09/21 07:58 UTC NOAA

Fairfield / Travis Air Force Base, CA, United States (KSUU) 38-16N 121-57W 22M
Sep 21, 2020 - 03:58 AM EDT / 2020.09.21 0758 UTC
Wind: from the SW (220 degrees) at 14 MPH (12 KT):0
Visibility: 10 mile(s):0
Sky conditions: clear
Temperature: 65.1 F (18.4 C)
Dew Point: 55.9 F (13.3 C)
Relative Humidity: 72%
Pressure (altimeter): 29.83 in. Hg (1010 hPa)
ob: KSUU 210758Z AUTO 22012KT 10SM CLR 18/13 A2983 RMK AO2 SLP108 T01840133 403640129
cycle: 8

Station Type Date Time Source
KSUU TAF 2020/09/21 03:09 UTC NOAA

TAF KSUU 210300Z 2103/2209 23012G18KT 9999 SKC QNH2981INS
BECMG 2111/2112 23010KT 9999 SKC QNH2986INS
BECMG 2123/2124 23015G20KT 9999 SKC QNH2986INS TX33/2122Z TN14/2112Z

Example: see airport list